Time;durP1;ratioP1;P1;durP2;ratioP2;P2;SDS_P1;SDS_P2;PMS_P1;PMS_P2;Temp;Humidity;BMP_temperature;BMP_pressure;BME280_temperature;BME280_humidity;BME280_pressure;Samples;Min_cycle;Max_cycle;Signal;HPM_P1;HPM_P2
2021/08/17 00:00:11;;;;;;;;;23.00;20.25;;;;;18.48;100.00;101940.91;5119205;27;45498;-67
2021/08/17 00:02:36;;;;;;;;;23.25;21.00;;;;;18.51;100.00;101960.22;5119464;27;45213;-67
2021/08/17 00:05:03;;;;;;;;;29.25;22.75;;;;;18.46;100.00;101950.66;5119544;27;45500;-67
2021/08/17 00:10:50;;;;;;;;;25.75;20.75;;;;;18.43;100.00;101945.47;5119444;27;45571;-68
2021/08/17 00:13:16;;;;;;;;;21.00;18.25;;;;;18.46;100.00;101959.47;5119445;27;45302;-66
2021/08/17 00:15:42;;;;;;;;;23.00;19.25;;;;;18.41;100.00;101956.09;5119838;27;45366;-68
2021/08/17 00:18:09;;;;;;;;;20.75;20.00;;;;;18.34;100.00;101943.97;5119298;27;45357;-67
2021/08/17 00:20:34;;;;;;;;;25.50;21.00;;;;;18.37;100.00;101954.44;5119121;27;45290;-67
2021/08/17 00:23:00;;;;;;;;;24.25;21.50;;;;;18.25;100.00;101934.47;5118984;27;45266;-67
2021/08/17 00:25:28;;;;;;;;;24.50;19.50;;;;;18.27;100.00;101942.38;5119401;27;45428;-68
2021/08/17 00:27:53;;;;;;;;;22.75;20.25;;;;;18.15;100.00;101922.44;5118885;27;47311;-67
2021/08/17 00:30:19;;;;;;;;;23.00;19.25;;;;;18.29;100.00;101953.75;5100976;27;45450;-67
2021/08/17 00:32:44;;;;;;;;;24.75;21.25;;;;;18.21;100.00;101945.19;5118311;27;45284;-68
2021/08/17 00:35:10;;;;;;;;;21.50;19.25;;;;;18.21;100.00;101945.19;5119195;27;45556;-67
2021/08/17 00:40:57;;;;;;;;;22.50;18.75;;;;;18.06;100.00;101938.50;5119011;27;45795;-67
2021/08/17 00:43:22;;;;;;;;;19.75;18.25;;;;;18.04;100.00;101941.19;5119402;27;45346;-68
2021/08/17 00:45:48;;;;;;;;;31.50;23.00;;;;;18.02;100.00;101943.00;5119514;27;45320;-67
2021/08/17 00:48:13;;;;;;;;;17.50;16.00;;;;;18.04;100.00;101946.47;5118930;27;46559;-67
2021/08/17 00:50:39;;;;;;;;;19.50;16.00;;;;;18.00;100.00;101939.53;5118703;27;45422;-68
2021/08/17 00:53:05;;;;;;;;;21.50;19.00;;;;;17.87;100.00;101913.47;5119097;27;45360;-68
2021/08/17 00:55:34;;;;;;;;;23.00;19.25;;;;;17.99;100.00;101942.22;5118859;27;45508;-68
2021/08/17 00:57:59;;;;;;;;;28.75;22.75;;;;;17.92;100.00;101935.38;5118531;27;46667;-68
2021/08/17 01:00:25;;;;;;;;;22.00;19.50;;;;;17.91;100.00;101945.09;5118557;27;45273;-68
2021/08/17 01:02:51;;;;;;;;;21.50;19.25;;;;;17.86;100.00;101938.16;5118710;27;45353;-67
2021/08/17 01:05:18;;;;;;;;;25.50;18.75;;;;;17.81;100.00;101935.63;5118098;27;45451;-67
2021/08/17 01:11:05;;;;;;;;;22.50;17.50;;;;;17.67;100.00;101930.72;5118451;27;45396;-68
2021/08/17 01:13:31;;;;;;;;;22.00;20.00;;;;;17.69;100.00;101933.31;5118359;27;45416;-68
2021/08/17 01:15:57;;;;;;;;;21.25;18.25;;;;;17.67;100.00;101936.00;5118509;27;45518;-68
2021/08/17 01:18:23;;;;;;;;;24.00;20.50;;;;;17.64;100.00;101929.84;5118412;27;47016;-68
2021/08/17 01:20:50;;;;;;;;;20.00;17.75;;;;;17.63;100.00;101936.06;5118215;27;45341;-68
2021/08/17 01:23:18;;;;;;;;;18.00;16.25;;;;;17.60;100.00;101938.78;5118509;27;45263;-69
2021/08/17 01:25:44;;;;;;;;;20.00;17.00;;;;;17.53;100.00;101932.78;5118612;27;45427;-67
2021/08/17 01:28:10;;;;;;;;;25.00;17.25;;;;;17.54;100.00;101934.50;5118267;27;47343;-68
2021/08/17 01:30:35;;;;;;;;;20.00;16.75;;;;;17.49;100.00;101930.25;5117723;27;45308;-67
2021/08/17 01:33:01;;;;;;;;;22.25;15.75;;;;;17.55;100.00;101946.81;5118631;27;45376;-68
2021/08/17 01:35:27;;;;;;;;;16.00;14.75;;;;;17.48;100.00;101939.09;5118191;27;45288;-67
2021/08/17 01:41:14;;;;;;;;;18.75;15.00;;;;;17.53;100.00;101950.41;5118009;27;45532;-66
2021/08/17 01:43:40;;;;;;;;;16.00;15.00;;;;;17.51;100.00;101954.84;5117881;27;45270;-67
2021/08/17 01:46:05;;;;;;;;;16.75;15.25;;;;;17.46;100.00;101954.97;5118425;27;45278;-67
2021/08/17 01:48:34;;;;;;;;;12.75;12.50;;;;;17.36;100.00;101943.72;5117844;27;46582;-68
2021/08/17 01:51:01;;;;;;;;;18.25;13.75;;;;;17.38;100.00;101951.59;5118165;27;45357;-68
2021/08/17 01:53:28;;;;;;;;;16.00;14.75;;;;;17.35;100.00;101949.91;5117949;27;45266;-66
2021/08/17 01:55:55;;;;;;;;;17.50;13.25;;;;;17.33;100.00;101951.72;5118017;27;45230;-69
2021/08/17 01:58:23;;;;;;;;;16.00;14.00;;;;;17.33;100.00;101945.56;5117544;27;47426;-68
2021/08/17 02:00:49;;;;;;;;;17.75;14.75;;;;;17.28;100.00;101934.25;5117837;27;45644;-69
2021/08/17 02:03:14;;;;;;;;;17.75;14.75;;;;;17.22;100.00;101934.41;5117736;27;45361;-69
2021/08/17 02:05:39;;;;;;;;;16.50;13.75;;;;;17.15;100.00;101931.00;5118332;27;45444;-69
2021/08/17 02:11:26;;;;;;;;;17.75;14.00;;;;;17.07;100.00;101928.56;5117720;27;45665;-65
2021/08/17 02:13:51;;;;;;;;;16.50;14.50;;;;;17.00;100.00;101919.06;5118061;27;45330;-68
2021/08/17 02:16:17;;;;;;;;;17.00;14.75;;;;;17.01;100.00;101923.44;5118055;27;45406;-67
2021/08/17 02:18:42;;;;;;;;;16.25;12.25;;;;;17.04;100.00;101927.75;5121380;27;46476;-67
2021/08/17 02:21:07;;;;;;;;;15.00;13.75;;;;;17.03;100.00;101926.03;5121065;27;45588;-68
2021/08/17 02:23:33;;;;;;;;;18.25;16.50;;;;;17.01;100.00;101927.84;5121641;27;45365;-67
2021/08/17 02:25:59;;;;;;;;;15.00;14.00;;;;;16.97;100.00;101921.72;5121218;27;45513;-67
2021/08/17 02:28:24;;;;;;;;;18.00;15.00;;;;;17.02;100.00;101932.22;5120955;27;46420;-66
2021/08/17 02:30:51;;;;;;;;;15.75;12.75;;;;;17.01;100.00;101931.34;5102061;27;45377;-67
2021/08/17 02:33:18;;;;;;;;;18.75;14.00;;;;;17.00;100.00;101929.59;5121358;27;45227;-67
2021/08/17 02:41:50;;;;;;;;;17.00;15.00;;;;;16.99;100.00;101935.78;5121015;27;45345;-67
2021/08/17 02:44:15;;;;;;;;;16.50;13.00;;;;;16.99;100.00;101932.28;5121219;27;45313;-68
2021/08/17 02:46:40;;;;;;;;;18.25;15.25;;;;;17.00;100.00;101939.28;5121298;27;45291;-67
2021/08/17 02:49:06;;;;;;;;;16.25;14.00;;;;;16.98;100.00;101936.69;5120911;27;46139;-67
2021/08/17 02:51:31;;;;;;;;;17.25;14.00;;;;;16.91;100.00;101931.56;5121009;27;45294;-68
2021/08/17 02:53:57;;;;;;;;;12.75;11.75;;;;;16.94;100.00;101942.03;5121110;27;45394;-67
2021/08/17 02:56:22;;;;;;;;;15.25;14.00;;;;;16.88;100.00;101931.63;5121039;27;45539;-68
2021/08/17 02:58:48;;;;;;;;;17.00;15.75;;;;;16.85;100.00;101932.56;5120777;27;45497;-68
2021/08/17 03:01:13;;;;;;;;;20.50;16.00;;;;;16.76;100.00;101920.44;5120736;27;45290;-69
2021/08/17 03:03:38;;;;;;;;;17.00;13.75;;;;;16.83;100.00;101942.28;5121199;27;45187;-68
2021/08/17 03:06:06;;;;;;;;;17.50;15.50;;;;;16.79;100.00;101925.66;5121129;27;45287;-68
2021/08/17 03:08:31;;;;;;;;;18.50;16.50;;;;;16.74;100.00;101924.00;5121068;27;46518;-68
2021/08/17 03:10:57;;;;;;;;;19.00;16.25;;;;;16.76;100.00;101936.28;5120952;27;45335;-69
2021/08/17 03:13:22;;;;;;;;;25.00;17.00;;;;;16.75;100.00;101931.91;5120727;27;45347;-68
2021/08/17 03:15:47;;;;;;;;;21.00;17.25;;;;;16.74;100.00;101931.91;5120964;27;45311;-68
2021/08/17 03:18:13;;;;;;;;;17.00;16.00;;;;;16.71;100.00;101930.19;5120423;27;47431;-68
2021/08/17 03:20:38;;;;;;;;;18.00;12.25;;;;;16.69;100.00;101931.13;5120544;27;45347;-68
2021/08/17 03:26:25;;;;;;;;;19.25;14.50;;;;;16.67;100.00;101927.66;5120836;27;45224;-67
2021/08/17 03:28:51;;;;;;;;;17.50;14.00;;;;;16.52;100.00;101911.25;5120156;27;46559;-69
2021/08/17 03:31:17;;;;;;;;;18.50;16.00;;;;;16.66;100.00;101925.91;5120596;27;45324;-68
2021/08/17 03:33:42;;;;;;;;;15.50;14.75;;;;;16.64;100.00;101928.56;5120383;27;45391;-69
2021/08/17 03:36:07;;;;;;;;;18.00;14.25;;;;;16.63;100.00;101926.81;5120489;27;45341;-68
2021/08/17 03:38:38;;;;;;;;;20.50;15.00;;;;;16.61;100.00;101930.41;5120114;27;45459;-68
2021/08/17 03:41:04;;;;;;;;;18.67;17.33;;;;;16.66;100.00;101932.06;5120089;27;45483;-67
2021/08/17 03:43:31;;;;;;;;;15.25;14.50;;;;;16.62;100.00;101924.22;5120793;27;45305;-67
2021/08/17 03:45:57;;;;;;;;;16.00;14.50;;;;;16.64;100.00;101925.06;5120634;27;45341;-68
2021/08/17 03:48:23;;;;;;;;;20.25;17.25;;;;;16.54;100.00;101913.84;5120251;27;45567;-69
2021/08/17 03:50:48;;;;;;;;;15.75;13.00;;;;;16.63;100.00;101925.97;5120259;27;45291;-68
2021/08/17 03:56:35;;;;;;;;;18.50;16.75;;;;;16.59;100.00;101926.94;5118449;27;45361;-67
2021/08/17 03:59:00;;;;;;;;;17.75;14.00;;;;;16.57;100.00;101928.72;5120165;27;45502;-68
2021/08/17 04:01:26;;;;;;;;;16.50;14.25;;;;;16.45;100.00;101917.50;5101435;27;45399;-68
2021/08/17 04:03:51;;;;;;;;;15.00;13.50;;;;;16.46;100.00;101918.38;5119840;27;45760;-68
2021/08/17 04:06:17;;;;;;;;;16.25;12.25;;;;;16.49;100.00;101923.59;5120047;27;45398;-68
2021/08/17 04:08:42;;;;;;;;;10.75;8.50;;;;;16.44;100.00;101926.31;5119624;27;46455;-69
2021/08/17 04:11:07;;;;;;;;;15.00;14.00;;;;;16.40;100.00;101919.38;5120063;27;45353;-68
2021/08/17 04:13:33;;;;;;;;;12.00;10.50;;;;;16.42;100.00;101925.47;5119866;27;45354;-67
2021/08/17 04:15:58;;;;;;;;;15.00;14.50;;;;;16.43;100.00;101926.34;5101510;27;45460;-68
2021/08/17 04:18:23;;;;;;;;;17.50;13.50;;;;;16.41;100.00;101920.25;5119516;27;46107;-68
2021/08/17 04:20:49;;;;;;;;;17.75;14.50;;;;;16.42;100.00;101919.34;5119580;27;45383;-68
2021/08/17 04:26:36;;;;;;;;;17.50;14.00;;;;;16.34;100.00;101908.97;5119773;27;45414;-68
2021/08/17 04:29:01;;;;;;;;;16.75;15.75;;;;;16.37;100.00;101923.84;5119771;27;45330;-68
2021/08/17 04:31:27;;;;;;;;;15.50;14.50;;;;;16.29;100.00;101908.16;5119671;27;45357;-68
2021/08/17 04:33:52;;;;;;;;;13.00;9.00;;;;;16.33;100.00;101916.91;5119534;27;45355;-68
2021/08/17 04:36:18;;;;;;;;;15.25;14.00;;;;;16.32;100.00;101926.56;5119549;27;45445;-68
2021/08/17 04:38:43;;;;;;;;;16.50;14.50;;;;;16.22;100.00;101898.63;5100754;27;46340;-68
2021/08/17 04:41:09;;;;;;;;;17.00;14.75;;;;;16.20;100.00;101905.72;5118290;27;45318;-68
2021/08/17 04:43:34;;;;;;;;;17.25;15.00;;;;;16.30;100.00;101914.31;5119816;27;45344;-68
2021/08/17 04:45:59;;;;;;;;;14.50;13.00;;;;;16.30;100.00;101916.97;5119567;27;45407;-68
2021/08/17 04:48:25;;;;;;;;;15.50;14.25;;;;;16.23;100.00;101903.00;5118871;27;46276;-68
2021/08/17 04:50:50;;;;;;;;;14.00;13.00;;;;;16.23;100.00;101909.16;5119009;27;45334;-69
2021/08/17 04:56:37;;;;;;;;;16.50;14.00;;;;;16.27;100.00;101911.72;5118993;27;45368;-67
2021/08/17 04:59:03;;;;;;;;;16.50;13.75;;;;;16.24;100.00;101907.38;5118841;27;45282;-67
2021/08/17 05:01:30;;;;;;;;;15.25;13.00;;;;;16.27;100.00;101919.63;5100189;27;45402;-67
2021/08/17 05:03:55;;;;;;;;;14.25;13.25;;;;;16.27;100.00;101919.63;5119004;27;45360;-68
2021/08/17 05:06:20;;;;;;;;;16.00;13.75;;;;;16.24;100.00;101910.88;5119065;27;45462;-68
2021/08/17 05:08:46;;;;;;;;;15.75;13.25;;;;;16.23;100.00;101911.78;5118704;27;47318;-68
2021/08/17 05:11:11;;;;;;;;;15.00;12.25;;;;;16.20;100.00;101918.88;5118783;27;45305;-67
2021/08/17 05:13:37;;;;;;;;;14.00;13.00;;;;;16.22;100.00;101925.84;5118940;27;45323;-67
2021/08/17 05:16:02;;;;;;;;;17.00;14.00;;;;;16.21;100.00;101928.53;5118871;27;45605;-68
2021/08/17 05:18:32;;;;;;;;;16.25;13.25;;;;;16.21;100.00;101934.66;5118854;27;46328;-68
2021/08/17 05:20:58;;;;;;;;;14.00;12.25;;;;;16.21;100.00;101933.78;5118573;27;45379;-66
2021/08/17 05:26:48;;;;;;;;;20.50;16.25;;;;;16.22;100.00;101939.03;5118919;27;45288;-68
2021/08/17 05:29:13;;;;;;;;;19.50;14.25;;;;;16.22;100.00;101936.41;5118297;27;46555;-68
2021/08/17 05:31:39;;;;;;;;;14.75;12.50;;;;;16.22;100.00;101941.66;5118524;27;45365;-67
2021/08/17 05:34:04;;;;;;;;;21.50;14.75;;;;;16.16;100.00;101938.28;5118780;27;45286;-68
2021/08/17 05:36:29;;;;;;;;;13.00;11.25;;;;;16.23;100.00;101955.72;5118591;27;45314;-67
2021/08/17 05:38:55;;;;;;;;;14.00;13.00;;;;;16.23;100.00;101947.81;5118375;27;46126;-68
2021/08/17 05:41:20;;;;;;;;;18.75;14.50;;;;;16.27;100.00;101953.88;5118327;27;45309;-69
2021/08/17 05:43:45;;;;;;;;;14.00;12.75;;;;;16.36;100.00;101961.66;5119053;27;45340;-69
2021/08/17 05:46:11;;;;;;;;;12.50;12.00;;;;;16.38;100.00;101957.22;5118775;27;45391;-69
2021/08/17 05:48:36;;;;;;;;;21.25;16.00;;;;;16.41;100.00;101957.16;5118426;27;46592;-68
2021/08/17 05:51:02;;;;;;;;;12.50;12.00;;;;;16.47;100.00;101967.56;5119151;27;45279;-68
2021/08/17 05:56:50;;;;;;;;;16.25;14.00;;;;;16.34;100.00;101929.19;5121624;27;45521;-67
2021/08/17 05:59:16;;;;;;;;;15.75;12.75;;;;;16.47;100.00;101949.13;5103267;27;47849;-67
2021/08/17 06:01:41;;;;;;;;;14.50;13.00;;;;;16.60;100.00;101962.94;5122019;27;45280;-68
2021/08/17 06:04:06;;;;;;;;;12.00;9.75;;;;;16.61;100.00;101959.41;5122232;27;45340;-67
2021/08/17 06:06:32;;;;;;;;;13.25;12.75;;;;;16.64;100.00;101960.22;5122061;27;45275;-66
2021/08/17 06:08:59;;;;;;;;;16.75;13.50;;;;;16.70;100.00;101962.75;5121794;27;46514;-67
2021/08/17 06:11:25;;;;;;;;;13.75;11.50;;;;;16.71;100.00;101959.22;5121629;27;45157;-67
2021/08/17 06:13:53;;;;;;;;;14.75;13.50;;;;;16.76;100.00;101969.69;5121847;27;45199;-67
2021/08/17 06:16:18;;;;;;;;;19.50;15.00;;;;;16.74;100.00;101963.53;5121699;27;45356;-68
2021/08/17 06:18:44;;;;;;;;;15.25;12.75;;;;;16.82;100.00;101975.69;5103220;27;45379;-68
2021/08/17 06:21:09;;;;;;;;;14.25;11.50;;;;;16.81;100.00;101973.97;5121208;27;45470;-68
2021/08/17 06:26:56;;;;;;;;;13.75;13.50;;;;;16.86;100.00;101976.50;5121875;27;45556;-67
2021/08/17 06:29:21;;;;;;;;;9.00;8.50;;;;;16.91;100.00;101973.75;5121303;27;46708;-68
2021/08/17 06:31:46;;;;;;;;;12.50;7.75;;;;;16.95;100.00;101971.03;5121294;27;45365;-68
2021/08/17 06:34:12;;;;;;;;;14.00;9.25;;;;;16.82;100.00;101943.19;5121431;27;45365;-68
2021/08/17 06:36:41;;;;;;;;;15.25;13.25;;;;;16.97;100.00;101969.22;5121353;27;45439;-67
2021/08/17 06:39:07;;;;;;;;;13.00;12.00;;;;;17.01;100.00;101976.19;5121058;27;45709;-67
2021/08/17 06:41:33;;;;;;;;;18.25;14.00;;;;;17.02;100.00;101972.66;5120922;27;45544;-68
2021/08/17 06:44:00;;;;;;;;;15.25;10.50;;;;;17.01;100.00;101970.06;5121174;27;45205;-67
2021/08/17 06:46:26;;;;;;;;;16.75;13.00;;;;;17.09;100.00;101974.25;5121286;27;45362;-67
2021/08/17 06:48:52;;;;;;;;;13.75;10.00;;;;;17.19;100.00;101985.47;5120776;27;47339;-68
2021/08/17 06:51:17;;;;;;;;;12.25;10.00;;;;;17.19;100.00;101974.91;5121156;27;45324;-68
2021/08/17 06:57:05;;;;;;;;;12.50;9.50;;;;;17.40;100.00;101981.47;5120771;27;45288;-67
2021/08/17 06:59:30;;;;;;;;;10.00;8.50;;;;;17.43;100.00;101974.38;5120800;27;46250;-67
2021/08/17 07:01:55;;;;;;;;;15.00;11.50;;;;;17.54;100.00;101971.47;5120839;27;45356;-67
2021/08/17 07:04:21;;;;;;;;;12.00;10.00;;;;;17.67;100.00;101972.06;5120110;27;45920;-67
2021/08/17 07:06:46;;;;;;;;;14.25;10.75;;;;;17.73;100.00;101966.66;5120906;27;45328;-67
2021/08/17 07:09:11;;;;;;;;;15.75;13.50;;;;;17.80;100.00;101959.44;5120577;27;46219;-67
2021/08/17 07:11:37;;;;;;;;;11.00;10.00;;;;;17.84;100.00;101954.03;5120656;27;45390;-67
2021/08/17 07:14:02;;;;;;;;;10.00;10.00;;;;;17.92;100.00;101951.22;5120808;27;45456;-68
2021/08/17 07:16:28;;;;;;;;;16.50;11.50;;;;;18.03;100.00;101975.59;5121026;27;45380;-68
2021/08/17 07:18:53;;;;;;;;;12.75;10.00;;;;;18.04;100.00;101964.13;5120521;27;47055;-68
2021/08/17 07:21:19;;;;;;;;;15.50;11.25;;;;;18.16;100.00;101974.38;5120267;27;45372;-67
2021/08/17 07:27:06;;;;;;;;;16.00;11.25;;;;;18.39;100.00;101984.34;5120760;27;45461;-67
2021/08/17 07:29:31;;;;;;;;;13.75;11.75;;;;;18.53;100.00;101986.59;5120270;27;47030;-67
2021/08/17 07:31:56;;;;;;;;;10.50;10.00;;;;;18.57;100.00;101988.28;5120268;27;45403;-68
2021/08/17 07:34:22;;;;;;;;;8.75;7.25;;;;;18.57;100.00;101983.88;5120526;27;45362;-67
2021/08/17 07:36:47;;;;;;;;;12.25;11.25;;;;;18.53;100.00;101989.25;5120623;27;45296;-67
2021/08/17 07:39:14;;;;;;;;;12.00;9.00;;;;;18.49;100.00;101982.31;5120140;27;46266;-68
2021/08/17 07:41:39;;;;;;;;;12.00;11.00;;;;;18.47;100.00;101977.06;5120028;27;45334;-68
2021/08/17 07:44:05;;;;;;;;;11.25;9.00;;;;;18.53;100.00;101976.03;5120307;27;45353;-68
2021/08/17 07:46:31;;;;;;;;;12.25;10.00;;;;;18.60;100.00;101981.13;5120408;27;45302;-67
2021/08/17 07:48:56;;;;;;;;;10.75;10.25;;;;;18.63;100.00;101982.84;5119956;27;45582;-68
2021/08/17 07:51:23;;;;;;;;;13.50;10.00;;;;;18.70;100.00;101981.75;5119989;27;45221;-68
2021/08/17 07:57:10;;;;;;;;;11.00;10.00;;;;;18.90;100.00;101974.13;5119810;27;45408;-67
2021/08/17 07:59:35;;;;;;;;;10.00;8.50;;;;;19.14;100.00;101983.13;5119777;27;46495;-67
2021/08/17 08:02:00;;;;;;;;;10.75;8.75;;;;;19.29;100.00;101981.78;5119839;27;45283;-67
2021/08/17 08:04:26;;;;;;;;;12.25;10.25;;;;;19.43;100.00;101971.63;5120261;27;45370;-67
2021/08/17 08:06:51;;;;;;;;;9.50;8.25;;;;;19.62;100.00;101973.72;5120404;27;45191;-68
2021/08/17 08:09:17;;;;;;;;;11.75;9.75;;;;;19.81;100.00;101965.13;5119834;27;46628;-68
2021/08/17 08:11:42;;;;;;;;;8.50;7.25;;;;;20.00;100.00;101978.66;5119706;27;45318;-68
2021/08/17 08:14:07;;;;;;;;;7.00;6.00;;;;;20.26;100.00;101979.53;5119737;27;45360;-67
2021/08/17 08:16:33;;;;;;;;;11.00;9.75;;;;;20.58;100.00;101976.63;5119940;27;45274;-68
2021/08/17 08:18:59;;;;;;;;;9.25;8.25;;;;;20.86;100.00;101971.19;5119487;27;46800;-68
2021/08/17 08:21:24;;;;;;;;;11.25;10.25;;;;;21.34;100.00;101989.72;5119492;27;45618;-67
2021/08/17 08:27:14;;;;;;;;;13.00;11.00;;;;;21.87;100.00;101996.47;5119567;27;45230;-68
2021/08/17 08:29:40;;;;;;;;;7.75;7.00;;;;;21.90;100.00;101980.38;5119181;27;46462;-68
2021/08/17 08:32:06;;;;;;;;;10.50;9.25;;;;;21.92;100.00;101991.81;5119527;27;45303;-69
2021/08/17 08:34:32;;;;;;;;;8.00;7.25;;;;;21.83;100.00;101982.44;5119985;27;45532;-69
2021/08/17 08:36:57;;;;;;;;;8.50;7.75;;;;;21.87;100.00;101991.16;5119303;27;45342;-66
2021/08/17 08:39:23;;;;;;;;;9.00;8.00;;;;;21.87;100.00;101983.16;5100499;27;46252;-67
2021/08/17 08:41:49;;;;;;;;;9.00;8.75;;;;;21.96;100.00;101993.44;5119366;27;45348;-66
2021/08/17 08:44:15;;;;;;;;;10.25;8.50;;;;;22.08;100.00;101989.41;5119555;27;45384;-67
2021/08/17 08:46:41;;;;;;;;;10.00;8.00;;;;;22.25;100.00;101987.78;5119449;27;45376;-67
2021/08/17 08:49:08;;;;;;;;;8.50;8.50;;;;;22.39;100.00;101986.28;5118907;27;46955;-67
2021/08/17 08:51:36;;;;;;;;;11.25;9.00;;;;;22.47;100.00;101984.19;5119046;27;45627;-67
2021/08/17 08:57:22;;;;;;;;;13.25;11.00;;;;;22.79;100.00;101986.25;5118535;27;45451;-66
2021/08/17 08:59:48;;;;;;;;;11.00;10.00;;;;;22.92;100.00;101987.47;5117461;27;46525;-67
2021/08/17 09:02:18;;;;;;;;;10.50;8.00;;;;;23.04;100.00;101986.03;5118781;27;45367;-68
2021/08/17 09:04:54;;;;;;;;;8.00;6.00;;;;;23.14;100.00;101983.81;5119289;27;45374;-68
2021/08/17 09:07:50;;;;;;;;;7.50;7.25;;;;;23.18;100.00;101994.25;5118942;27;45412;-68
2021/08/17 09:10:25;;;;;;;;;11.25;8.75;;;;;23.23;100.00;101983.38;5118383;27;46280;-68
2021/08/17 09:12:54;;;;;;;;;16.25;14.00;;;;;23.39;100.00;101992.38;5118790;27;45366;-69
2021/08/17 09:15:29;;;;;;;;;7.25;6.75;;;;;23.54;100.00;101980.13;5118773;27;45200;-69
2021/08/17 09:18:07;;;;;;;;;8.50;7.75;;;;;23.70;100.00;101991.75;5118957;27;45395;-68
2021/08/17 09:20:40;;;;;;;;;7.50;7.00;;;;;23.75;100.00;101980.88;5118578;27;47531;-68
2021/08/17 09:23:28;;;;;;;;;9.50;7.00;;;;;23.68;100.00;101984.78;5118458;27;45477;-69
2021/08/17 09:25:59;;;;;;;;;12.50;9.00;;;;;23.52;100.00;101977.50;5118090;27;45325;-69
2021/08/17 09:28:30;;;;;;;;;10.00;8.75;;;;;23.65;100.00;101983.13;5119156;27;45227;-68
2021/08/17 09:30:57;;;;;;;;;9.00;8.50;;;;;23.79;100.00;101977.13;5118300;27;47247;-69
2021/08/17 09:33:33;;;;;;;;;10.75;10.25;;;;;23.87;100.00;101974.94;5099849;27;45575;-68
2021/08/17 09:36:00;;;;;;;;;10.50;6.75;;;;;23.91;100.00;101973.84;5118633;27;45276;-68
2021/08/17 09:38:30;;;;;;;;;7.75;7.75;;;;;23.84;100.00;101969.75;5118566;27;45358;-69
2021/08/17 09:40:56;;;;;;;;;9.25;8.75;;;;;23.80;100.00;101969.06;5118014;27;46078;-68
2021/08/17 09:43:23;;;;;;;;;11.25;8.75;;;;;23.82;100.00;101963.63;5118018;27;45295;-69
2021/08/17 09:45:52;;;;;;;;;10.25;9.50;;;;;23.94;100.00;101959.47;5118716;27;45166;-68
2021/08/17 09:48:37;;;;;;;;;8.25;8.25;;;;;24.04;100.00;101934.94;5118457;27;45435;-67
2021/08/17 09:51:03;;;;;;;;;9.00;8.00;;;;;24.36;100.00;101951.94;5117964;27;46488;-67
2021/08/17 09:53:28;;;;;;;;;6.75;6.50;;;;;25.03;100.00;101969.72;5099680;27;45444;-68
2021/08/17 09:55:56;;;;;;;;;9.00;7.75;;;;;25.49;100.00;101956.44;5118360;27;45333;-69
2021/08/17 09:58:31;;;;;;;;;8.25;7.75;;;;;26.27;100.00;101951.84;5118259;27;45283;-68
2021/08/17 10:00:59;;;;;;;;;12.75;10.75;;;;;26.81;100.00;101958.31;5118055;27;46353;-69
2021/08/17 10:03:27;;;;;;;;;9.00;8.00;;;;;27.28;100.00;101951.75;5118260;27;45396;-67
2021/08/17 10:05:52;;;;;;;;;10.00;8.50;;;;;27.27;100.00;101954.53;5118127;27;45311;-69
2021/08/17 10:08:20;;;;;;;;;8.00;8.00;;;;;27.26;100.00;101942.94;5118298;27;45444;-69
2021/08/17 10:10:47;;;;;;;;;6.50;6.00;;;;;27.66;100.00;101946.56;5117838;27;46402;-67
2021/08/17 10:13:17;;;;;;;;;9.75;8.00;;;;;27.19;100.00;101932.72;5117904;27;45462;-68
2021/08/17 10:15:44;;;;;;;;;8.75;7.00;;;;;26.68;100.00;101951.13;5117979;27;45272;-68
2021/08/17 10:18:10;;;;;;;;;11.50;9.25;;;;;26.15;100.00;101948.09;5118270;27;45331;-68
2021/08/17 10:20:42;;;;;;;;;9.00;7.75;;;;;25.72;100.00;101938.22;5117843;27;46257;-69
2021/08/17 10:23:12;;;;;;;;;9.00;8.00;;;;;25.52;100.00;101934.00;5117496;27;45383;-67
2021/08/17 10:25:47;;;;;;;;;7.75;7.00;;;;;25.49;100.00;101948.41;5117958;27;45294;-68
2021/08/17 10:28:36;;;;;;;;;8.25;8.00;;;;;25.38;100.00;101939.28;5117937;27;45221;-68
2021/08/17 10:31:13;;;;;;;;;8.25;7.50;;;;;25.53;100.00;101936.56;5117460;27;47320;-68
2021/08/17 10:33:53;;;;;;;;;8.25;7.00;;;;;26.18;100.00;101925.63;5118115;27;45442;-67
2021/08/17 10:39:39;;;;;;;;;9.50;9.00;;;;;27.43;100.00;101917.72;5037432;28;45326;-68
2021/08/17 10:42:23;;;;;;;;;10.00;8.25;;;;;28.25;92.46;101917.47;5037549;28;46617;-69
2021/08/17 10:44:49;;;;;;;;;12.50;9.75;;;;;27.89;89.85;101925.38;5037505;28;45325;-69
2021/08/17 10:47:33;;;;;;;;;6.50;6.50;;;;;26.90;89.19;101922.00;5037421;28;45413;-69
2021/08/17 10:49:59;;;;;;;;;8.00;8.00;;;;;25.99;92.42;101920.50;5037691;28;45524;-68
2021/08/17 10:55:46;;;;;;;;;7.00;7.00;;;;;24.88;99.61;101921.56;5037120;28;45806;-68
2021/08/17 10:58:11;;;;;;;;;11.00;7.25;;;;;26.14;100.00;101889.28;5037154;28;45476;-68
2021/08/17 11:00:50;;;;;;;;;8.75;8.75;;;;;28.65;94.07;101904.78;5037725;28;45345;-68
2021/08/17 11:03:36;;;;;;;;;7.00;7.00;;;;;30.83;83.16;101902.53;5037179;28;46118;-69
2021/08/17 11:06:01;;;;;;;;;10.25;8.50;;;;;31.69;82.11;101892.59;5037246;28;45381;-69
2021/08/17 11:11:55;;;;;;;;;8.25;6.50;;;;;34.84;63.23;101898.84;5037324;28;45420;-69
2021/08/17 11:14:22;;;;;;;;;8.75;6.75;;;;;35.21;60.22;101896.06;5037093;28;45445;-69
2021/08/17 11:16:55;;;;;;;;;5.00;5.00;;;;;35.68;57.03;101898.56;5101020;27;45385;-68
2021/08/17 11:19:24;;;;;;;;;5.50;4.75;;;;;36.09;57.52;101894.28;5120665;27;45277;-68
2021/08/17 11:21:57;;;;;;;;;5.25;5.25;;;;;36.19;53.93;101865.09;5120790;27;45451;-68
2021/08/17 11:27:44;;;;;;;;;5.75;5.50;;;;;33.16;55.60;101888.59;5120486;27;45594;-68
2021/08/17 11:30:15;;;;;;;;;6.25;5.50;;;;;31.55;58.81;101892.91;5120577;27;45742;-68
2021/08/17 11:32:44;;;;;;;;;4.75;4.75;;;;;30.11;62.84;101894.81;5120701;27;45414;-68
2021/08/17 11:35:17;;;;;;;;;4.00;4.00;;;;;28.87;65.95;101898.72;5120318;27;46397;-68
2021/08/17 11:37:45;;;;;;;;;5.25;4.25;;;;;27.60;69.91;101912.06;5120234;27;45518;-69
2021/08/17 11:40:16;;;;;;;;;5.00;5.00;;;;;26.50;73.97;101911.16;5120366;27;45303;-68
2021/08/17 11:42:45;;;;;;;;;1.75;1.50;;;;;25.63;79.21;101904.81;5120671;27;45366;-69
2021/08/17 11:45:16;;;;;;;;;7.00;6.50;;;;;24.76;82.24;101888.38;5119941;27;46462;-68
2021/08/17 11:47:44;;;;;;;;;7.00;7.00;;;;;24.23;86.45;101908.16;5120224;27;45396;-69
2021/08/17 11:50:15;;;;;;;;;9.00;7.00;;;;;23.67;90.39;101913.72;5119875;27;45321;-68
2021/08/17 11:52:45;;;;;;;;;8.00;7.00;;;;;23.16;93.97;101916.19;5120401;27;45539;-68
2021/08/17 11:55:19;;;;;;;;;6.50;6.50;;;;;22.77;96.62;101905.56;5120183;27;46614;-68
2021/08/17 11:57:48;;;;;;;;;6.25;5.25;;;;;22.49;100.00;101907.78;5119828;27;45225;-69
2021/08/17 12:00:15;;;;;;;;;5.75;5.50;;;;;22.32;100.00;101919.19;5120429;27;45439;-68
2021/08/17 12:02:45;;;;;;;;;7.00;7.00;;;;;22.12;100.00;101914.72;5120298;27;45400;-68
2021/08/17 12:05:14;;;;;;;;;7.25;6.00;;;;;21.94;100.00;101912.81;5120055;27;45296;-67
2021/08/17 12:07:39;;;;;;;;;7.00;6.50;;;;;21.81;100.00;101907.19;5120038;27;45303;-67
2021/08/17 12:10:09;;;;;;;;;6.00;5.25;;;;;21.74;100.00;101910.19;5120294;27;45318;-68
2021/08/17 12:12:52;;;;;;;;;5.00;5.00;;;;;21.67;100.00;101910.41;5119969;27;45484;-68
2021/08/17 12:15:18;;;;;;;;;7.25;6.00;;;;;21.69;100.00;101907.69;5119498;27;46756;-68
2021/08/17 12:17:59;;;;;;;;;6.00;4.75;;;;;21.77;100.00;101905.59;5119520;27;45263;-69
2021/08/17 12:20:25;;;;;;;;;5.50;5.25;;;;;21.83;100.00;101900.00;5119792;27;45340;-69
2021/08/17 12:22:50;;;;;;;;;8.00;6.00;;;;;21.88;100.00;101887.38;5119948;27;45349;-68